createdAt,value
2023-02-23T00:00:33.776Z,59.81
2023-02-23T00:01:36.417Z,59.84
2023-02-23T00:02:40.092Z,59.70
2023-02-23T00:03:42.895Z,60.07
2023-02-23T00:04:45.636Z,60.04
2023-02-23T00:05:48.289Z,59.98
2023-02-23T00:06:53.296Z,60.06
2023-02-23T00:07:56.616Z,60.21
2023-02-23T00:09:02.214Z,60.28
2023-02-23T00:10:05.312Z,60.29
2023-02-23T00:11:10.495Z,60.09
2023-02-23T00:12:13.124Z,60.20
2023-02-23T00:13:15.985Z,60.03
2023-02-23T00:14:18.662Z,60.16
2023-02-23T00:15:21.385Z,60.02
2023-02-23T00:16:26.466Z,60.04
2023-02-23T00:17:29.304Z,60.09
2023-02-23T00:18:31.926Z,59.85
2023-02-23T00:19:34.613Z,59.77
2023-02-23T00:20:37.370Z,59.67
2023-02-23T00:21:40.936Z,59.47
2023-02-23T00:22:44.073Z,59.49
2023-02-23T00:23:52.154Z,59.66
2023-02-23T00:24:55.158Z,59.57
2023-02-23T00:26:00.541Z,59.59
2023-02-23T00:27:07.309Z,59.74
2023-02-23T00:28:11.210Z,59.72
2023-02-23T00:29:18.318Z,59.69
2023-02-23T00:30:21.605Z,59.70
2023-02-23T00:31:27.019Z,59.61
2023-02-23T00:32:29.872Z,59.60
2023-02-23T00:33:32.788Z,59.61
2023-02-23T00:34:36.991Z,59.65
2023-02-23T00:35:39.701Z,59.63
2023-02-23T00:36:42.471Z,59.70
2023-02-23T00:37:49.651Z,59.78
2023-02-23T00:39:01.541Z,59.87
2023-02-23T00:40:08.897Z,59.88
2023-02-23T00:41:14.575Z,59.78
2023-02-23T00:42:17.282Z,59.93
2023-02-23T00:43:21.070Z,59.88
2023-02-23T00:44:25.526Z,59.87
2023-02-23T00:45:28.236Z,59.87
2023-02-23T00:46:31.836Z,59.67
2023-02-23T00:47:34.539Z,59.78
2023-02-23T00:48:37.213Z,59.77
2023-02-23T00:49:39.829Z,59.74
2023-02-23T00:50:42.980Z,59.74
2023-02-23T00:51:46.031Z,60.00
2023-02-23T00:52:48.742Z,60.15
2023-02-23T00:53:55.778Z,59.78
2023-02-23T00:54:58.425Z,59.85
2023-02-23T00:56:01.123Z,59.78
2023-02-23T00:57:03.864Z,59.74
2023-02-23T00:58:06.503Z,59.98
2023-02-23T00:59:09.810Z,60.06
2023-02-23T01:00:19.725Z,60.18
2023-02-23T01:01:23.268Z,60.07
2023-02-23T01:02:26.208Z,60.06
2023-02-23T01:03:30.911Z,60.13
2023-02-23T01:04:33.575Z,60.17
2023-02-23T01:05:36.520Z,60.21
2023-02-23T01:06:39.985Z,60.27
2023-02-23T01:07:42.692Z,60.19
2023-02-23T01:08:49.917Z,60.16
2023-02-23T01:09:53.272Z,60.24
2023-02-23T01:10:56.020Z,60.18
2023-02-23T01:12:02.576Z,60.22
2023-02-23T01:13:05.251Z,60.33
2023-02-23T01:14:08.546Z,60.53
2023-02-23T01:15:13.152Z,60.39
2023-02-23T01:16:18.903Z,60.44
2023-02-23T01:17:21.555Z,60.40
2023-02-23T01:18:24.252Z,60.22
2023-02-23T01:19:26.924Z,60.34
2023-02-23T01:20:29.571Z,60.21
2023-02-23T01:21:35.293Z,60.35
2023-02-23T01:22:37.906Z,60.18
2023-02-23T01:23:40.624Z,60.53
2023-02-23T01:24:43.920Z,60.41
2023-02-23T01:25:47.029Z,60.26
2023-02-23T01:26:49.794Z,60.32
2023-02-23T01:27:52.426Z,60.25
2023-02-23T01:29:02.833Z,60.27
2023-02-23T01:30:06.290Z,60.40
2023-02-23T01:31:12.024Z,60.36
2023-02-23T01:32:15.010Z,60.51
2023-02-23T01:33:18.148Z,60.33
2023-02-23T01:34:22.747Z,60.59
2023-02-23T01:35:25.607Z,60.49
2023-02-23T01:36:30.140Z,60.33
2023-02-23T01:37:36.551Z,60.60
2023-02-23T01:38:39.371Z,60.37
2023-02-23T01:39:42.013Z,60.65
2023-02-23T01:40:48.430Z,60.44
2023-02-23T01:41:52.951Z,60.56
2023-02-23T01:43:01.550Z,60.58
2023-02-23T01:44:14.681Z,60.68
2023-02-23T01:45:35.862Z,60.60
2023-02-23T01:46:41.264Z,60.51
2023-02-23T01:47:44.011Z,60.62
2023-02-23T01:48:46.745Z,60.67
2023-02-23T01:49:49.584Z,60.70
2023-02-23T01:51:19.519Z,60.59
2023-02-23T01:52:22.363Z,60.54
2023-02-23T01:53:27.935Z,60.62
2023-02-23T01:54:37.454Z,60.74
2023-02-23T01:55:40.606Z,60.50
2023-02-23T01:56:47.344Z,60.53
2023-02-23T01:57:54.607Z,60.49
2023-02-23T01:59:00.435Z,60.67
2023-02-23T02:00:03.225Z,60.43
2023-02-23T02:01:06.659Z,60.49
2023-02-23T02:02:09.585Z,60.39
2023-02-23T02:03:18.363Z,60.49
2023-02-23T02:04:22.739Z,60.69
2023-02-23T02:05:26.826Z,60.41
2023-02-23T02:06:31.101Z,60.22
2023-02-23T02:07:36.303Z,60.36
2023-02-23T02:08:45.960Z,60.36
2023-02-23T02:10:08.283Z,60.64
2023-02-23T02:11:26.956Z,60.70
2023-02-23T02:12:29.687Z,60.77
2023-02-23T02:13:33.650Z,60.84
2023-02-23T02:14:37.650Z,60.75
2023-02-23T02:15:55.804Z,60.86
2023-02-23T02:17:24.572Z,60.60
2023-02-23T02:18:44.144Z,60.78
2023-02-23T02:20:07.562Z,60.67
2023-02-23T02:21:25.095Z,60.48
2023-02-23T02:22:55.944Z,60.70
2023-02-23T02:24:04.398Z,60.64
2023-02-23T02:25:33.993Z,60.85
2023-02-23T02:26:57.809Z,60.65
2023-02-23T02:28:33.936Z,60.74
2023-02-23T02:30:17.973Z,60.52
2023-02-23T02:31:26.329Z,60.96
2023-02-23T02:32:50.781Z,60.85
2023-02-23T02:34:08.465Z,61.00
2023-02-23T02:35:22.955Z,61.01
2023-02-23T02:37:03.277Z,61.00
2023-02-23T02:38:24.304Z,61.09
2023-02-23T02:39:39.337Z,61.10
2023-02-23T02:40:57.014Z,60.77
2023-02-23T02:42:31.375Z,60.73
2023-02-23T02:43:51.957Z,60.68
2023-02-23T02:45:12.583Z,60.77
2023-02-23T02:46:28.071Z,61.12
2023-02-23T02:47:56.981Z,60.99
2023-02-23T02:49:21.364Z,61.05
2023-02-23T02:50:35.835Z,60.93
2023-02-23T02:52:01.393Z,60.99
2023-02-23T02:53:12.169Z,61.17
2023-02-23T02:54:32.960Z,61.02
2023-02-23T02:55:40.012Z,61.21
2023-02-23T02:56:45.490Z,61.05
2023-02-23T02:57:48.302Z,61.06
2023-02-23T02:58:52.444Z,60.95
2023-02-23T03:00:13.847Z,60.91
2023-02-23T03:01:37.284Z,61.14
2023-02-23T03:03:00.466Z,61.22
2023-02-23T03:04:45.474Z,60.96
2023-02-23T03:06:12.437Z,61.13
2023-02-23T03:07:49.668Z,61.19
2023-02-23T03:09:22.463Z,61.25
2023-02-23T03:11:02.106Z,61.17
2023-02-23T03:12:29.241Z,61.10
2023-02-23T03:13:59.132Z,61.32
2023-02-23T03:16:01.068Z,61.23
2023-02-23T03:17:40.431Z,61.34
2023-02-23T03:19:07.450Z,61.38
2023-02-23T03:20:49.657Z,61.25
2023-02-23T03:22:26.886Z,61.25
2023-02-23T03:24:03.014Z,61.33
2023-02-23T03:25:39.413Z,61.16
2023-02-23T03:27:10.512Z,61.16
2023-02-23T03:28:39.076Z,60.93
2023-02-23T03:30:14.450Z,61.19
2023-02-23T03:31:44.445Z,61.38
2023-02-23T03:33:08.572Z,61.33
2023-02-23T03:34:39.989Z,61.56
2023-02-23T03:36:16.364Z,61.51
2023-02-23T03:37:59.794Z,61.42
2023-02-23T03:39:31.124Z,61.16
2023-02-23T03:40:57.691Z,61.16
2023-02-23T03:42:23.380Z,60.98
2023-02-23T03:43:54.781Z,61.09
2023-02-23T03:45:18.040Z,61.06
2023-02-23T03:46:41.329Z,60.96
2023-02-23T03:48:04.069Z,60.97
2023-02-23T03:49:29.705Z,61.07
2023-02-23T03:50:57.033Z,61.02
2023-02-23T03:52:24.873Z,61.07
2023-02-23T03:53:53.065Z,61.23
2023-02-23T03:55:20.208Z,60.76
2023-02-23T03:56:45.759Z,60.97
2023-02-23T03:58:11.984Z,60.80
2023-02-23T03:59:37.396Z,60.91
2023-02-23T04:01:03.722Z,61.06
2023-02-23T04:02:27.892Z,60.90
2023-02-23T04:03:52.472Z,60.69
2023-02-23T04:05:15.930Z,60.35
2023-02-23T04:06:38.707Z,60.44
2023-02-23T04:08:00.263Z,60.49
2023-02-23T04:09:24.384Z,60.25
2023-02-23T04:10:49.808Z,60.59
2023-02-23T04:12:15.513Z,60.72
2023-02-23T04:13:29.413Z,60.71
2023-02-23T04:14:42.445Z,60.70
2023-02-23T04:15:56.318Z,60.68
2023-02-23T04:16:59.998Z,60.98
2023-02-23T04:18:05.787Z,61.02
2023-02-23T04:19:08.524Z,60.83
2023-02-23T04:20:13.328Z,60.63
2023-02-23T04:21:16.037Z,60.62
2023-02-23T04:22:19.087Z,60.73
2023-02-23T04:23:24.014Z,60.75
2023-02-23T04:24:26.750Z,60.87
2023-02-23T04:25:31.438Z,60.66
2023-02-23T04:26:34.084Z,60.82
2023-02-23T04:27:37.890Z,60.77
2023-02-23T04:28:40.523Z,60.54
2023-02-23T04:29:43.450Z,60.55
2023-02-23T04:30:46.732Z,60.54
2023-02-23T04:31:49.807Z,60.38
2023-02-23T04:32:53.894Z,60.25
2023-02-23T04:33:56.538Z,60.36
2023-02-23T04:34:59.235Z,60.39
2023-02-23T04:36:01.873Z,60.30
2023-02-23T04:37:04.517Z,60.44
2023-02-23T04:38:07.357Z,60.44
2023-02-23T04:39:10.114Z,60.47
2023-02-23T04:40:13.507Z,60.54
2023-02-23T04:41:16.458Z,60.60
2023-02-23T04:42:20.144Z,60.79
2023-02-23T04:43:22.751Z,60.77
2023-02-23T04:44:25.403Z,60.79
2023-02-23T04:45:28.270Z,60.92
2023-02-23T04:46:31.660Z,61.00
2023-02-23T04:47:34.262Z,60.79
2023-02-23T04:48:37.141Z,60.65
2023-02-23T04:49:39.800Z,60.53
2023-02-23T04:50:42.501Z,60.66
2023-02-23T04:51:45.174Z,60.65
2023-02-23T04:52:48.178Z,60.87
2023-02-23T04:53:50.813Z,60.90
2023-02-23T04:54:53.520Z,61.02
2023-02-23T04:55:56.239Z,60.94
2023-02-23T04:56:58.893Z,60.92
2023-02-23T04:58:03.162Z,60.74
2023-02-23T04:59:05.813Z,60.82
2023-02-23T05:00:09.193Z,60.70
2023-02-23T05:01:12.572Z,60.41
2023-02-23T05:02:15.333Z,60.41
2023-02-23T05:03:18.632Z,60.69
2023-02-23T05:04:21.316Z,60.78
2023-02-23T05:05:24.158Z,60.92
2023-02-23T05:06:26.962Z,61.02
2023-02-23T05:07:29.652Z,61.14
2023-02-23T05:08:32.313Z,61.00
2023-02-23T05:09:36.059Z,60.98
2023-02-23T05:10:40.322Z,60.82
2023-02-23T05:11:43.376Z,60.80
2023-02-23T05:12:46.075Z,60.66
2023-02-23T05:13:48.829Z,60.90
2023-02-23T05:14:51.465Z,60.63
2023-02-23T05:15:58.942Z,60.65
2023-02-23T05:17:01.733Z,60.59
2023-02-23T05:18:04.474Z,60.61
2023-02-23T05:19:07.201Z,60.80
2023-02-23T05:20:14.413Z,60.62
2023-02-23T05:21:17.558Z,60.71
2023-02-23T05:22:20.317Z,60.76
2023-02-23T05:23:22.976Z,60.51
2023-02-23T05:24:26.770Z,60.88
2023-02-23T05:25:29.459Z,61.07
2023-02-23T05:26:32.319Z,61.05
2023-02-23T05:27:35.494Z,61.02
2023-02-23T05:28:40.007Z,60.76
2023-02-23T05:29:42.765Z,60.87
2023-02-23T05:30:45.550Z,61.10
2023-02-23T05:31:49.582Z,61.24
2023-02-23T05:32:52.597Z,61.02
2023-02-23T05:33:55.353Z,61.03
2023-02-23T05:34:58.090Z,61.08
2023-02-23T05:36:00.969Z,61.09
2023-02-23T05:37:03.732Z,60.85
2023-02-23T05:38:06.360Z,60.87
2023-02-23T05:39:09.114Z,60.83
2023-02-23T05:40:12.467Z,61.04
2023-02-23T05:41:18.957Z,61.07
2023-02-23T05:42:21.851Z,61.17
2023-02-23T05:43:24.516Z,60.94
2023-02-23T05:44:27.399Z,61.05
2023-02-23T05:45:30.164Z,60.98
2023-02-23T05:46:33.563Z,60.90
2023-02-23T05:47:39.703Z,60.62
2023-02-23T05:48:42.999Z,60.38
2023-02-23T05:49:47.287Z,60.54
2023-02-23T05:50:50.623Z,60.51
2023-02-23T05:51:53.292Z,60.44
2023-02-23T05:52:55.963Z,60.40
2023-02-23T05:53:58.980Z,60.45
2023-02-23T05:55:01.691Z,60.42
2023-02-23T05:56:06.297Z,60.40
2023-02-23T05:57:09.415Z,59.94
2023-02-23T05:58:12.068Z,59.96
2023-02-23T05:59:15.266Z,60.06
2023-02-23T06:00:19.130Z,60.01
2023-02-23T06:01:23.664Z,60.17
2023-02-23T06:02:26.499Z,60.07
2023-02-23T06:03:29.255Z,60.30
2023-02-23T06:04:31.995Z,60.16
2023-02-23T06:05:34.667Z,60.07
2023-02-23T06:06:37.369Z,60.00
2023-02-23T06:07:40.193Z,60.13
2023-02-23T06:08:43.697Z,59.95
2023-02-23T06:09:46.346Z,59.55
2023-02-23T06:10:49.042Z,59.43
2023-02-23T06:11:52.218Z,59.51
2023-02-23T06:12:54.946Z,59.65
2023-02-23T06:14:00.502Z,59.56
2023-02-23T06:15:03.194Z,59.73
2023-02-23T06:16:06.409Z,59.59
2023-02-23T06:17:09.289Z,59.67
2023-02-23T06:18:12.207Z,59.54
2023-02-23T06:19:14.865Z,59.50
2023-02-23T06:20:17.640Z,59.41
2023-02-23T06:21:21.724Z,59.02
2023-02-23T06:22:24.378Z,58.86
2023-02-23T06:23:27.069Z,58.93
2023-02-23T06:24:29.754Z,58.80
2023-02-23T06:25:32.514Z,58.97
2023-02-23T06:26:36.336Z,59.13
2023-02-23T06:27:39.350Z,59.00
2023-02-23T06:28:42.002Z,59.23
2023-02-23T06:29:45.011Z,59.33
2023-02-23T06:30:47.960Z,59.58
2023-02-23T06:31:50.676Z,59.42
2023-02-23T06:32:53.350Z,59.23
2023-02-23T06:33:56.864Z,59.27
2023-02-23T06:34:59.555Z,59.24
2023-02-23T06:36:02.198Z,59.20
2023-02-23T06:37:05.180Z,59.49
2023-02-23T06:38:08.435Z,59.70
2023-02-23T06:39:12.781Z,59.51
2023-02-23T06:40:15.591Z,59.19
2023-02-23T06:41:19.054Z,59.36
2023-02-23T06:42:21.979Z,59.37
2023-02-23T06:43:24.661Z,59.05
2023-02-23T06:44:27.324Z,59.01
2023-02-23T06:45:30.057Z,58.92
2023-02-23T06:46:34.618Z,59.02
2023-02-23T06:47:37.333Z,58.80
2023-02-23T06:48:40.505Z,59.24
2023-02-23T06:49:43.128Z,59.10
2023-02-23T06:50:45.785Z,59.02
2023-02-23T06:51:48.668Z,58.47
2023-02-23T06:52:51.443Z,58.97
2023-02-23T06:53:54.507Z,59.15
2023-02-23T06:54:57.184Z,58.93
2023-02-23T06:56:00.299Z,59.01
2023-02-23T06:57:02.923Z,59.07
2023-02-23T06:58:06.109Z,58.88
2023-02-23T06:59:08.717Z,58.95
2023-02-23T07:00:18.435Z,59.09
2023-02-23T07:01:22.201Z,59.28
2023-02-23T07:02:24.858Z,59.15
2023-02-23T07:03:27.707Z,59.21
2023-02-23T07:04:30.334Z,58.89
2023-02-23T07:05:32.979Z,58.83
2023-02-23T07:06:35.707Z,59.00
2023-02-23T07:08:54.407Z,58.94
2023-02-23T07:09:57.087Z,59.07
2023-02-23T07:11:14.823Z,59.17
2023-02-23T07:12:17.839Z,58.47
2023-02-23T07:13:21.586Z,58.58
2023-02-23T07:14:27.042Z,59.06
2023-02-23T07:15:30.158Z,58.76
2023-02-23T07:16:33.291Z,58.80
2023-02-23T07:17:36.061Z,58.81
2023-02-23T07:18:38.724Z,58.59
2023-02-23T07:19:42.292Z,58.36
2023-02-23T07:20:45.113Z,58.44
2023-02-23T07:21:47.729Z,58.48
2023-02-23T07:22:50.426Z,58.48
2023-02-23T07:23:53.274Z,58.56
2023-02-23T07:24:55.961Z,58.16
2023-02-23T07:25:59.154Z,58.72
2023-02-23T07:27:01.856Z,58.54
2023-02-23T07:28:04.626Z,58.77
2023-02-23T07:29:07.518Z,58.52
2023-02-23T07:30:11.397Z,58.45
2023-02-23T07:31:14.040Z,58.52
2023-02-23T07:32:16.850Z,58.70
2023-02-23T07:33:19.558Z,58.73
2023-02-23T07:34:22.346Z,58.22
2023-02-23T07:35:25.188Z,58.19
2023-02-23T07:36:27.874Z,58.48
2023-02-23T07:37:30.504Z,58.48
2023-02-23T07:38:33.180Z,57.94
2023-02-23T07:39:35.836Z,58.60
2023-02-23T07:40:38.487Z,58.29
2023-02-23T07:41:41.226Z,57.40
2023-02-23T07:42:44.033Z,57.67
2023-02-23T07:43:46.842Z,57.74
2023-02-23T07:44:49.520Z,58.04
2023-02-23T07:45:52.751Z,57.53
2023-02-23T07:46:55.464Z,57.96
2023-02-23T07:47:58.104Z,57.48
2023-02-23T07:49:00.807Z,57.31
2023-02-23T07:50:04.634Z,57.55
2023-02-23T07:51:12.883Z,57.70
2023-02-23T07:52:19.804Z,57.52
2023-02-23T07:53:22.503Z,57.36
2023-02-23T07:54:26.591Z,57.58
2023-02-23T07:55:29.276Z,57.41
2023-02-23T07:56:32.196Z,57.13
2023-02-23T07:57:35.245Z,56.76
2023-02-23T07:58:43.142Z,56.89
2023-02-23T07:59:45.788Z,57.05
2023-02-23T08:00:49.116Z,56.98
2023-02-23T08:01:52.861Z,57.12
2023-02-23T08:02:55.545Z,56.57
2023-02-23T08:03:58.228Z,56.55
2023-02-23T08:05:00.933Z,56.55
2023-02-23T08:06:03.652Z,56.70
2023-02-23T08:07:06.288Z,56.39
2023-02-23T08:08:09.111Z,56.70
2023-02-23T08:09:13.037Z,56.50
2023-02-23T08:10:15.716Z,56.60
2023-02-23T08:11:18.609Z,56.06
2023-02-23T08:12:21.549Z,56.00
2023-02-23T08:13:24.507Z,56.35
2023-02-23T08:14:27.196Z,56.44
2023-02-23T08:15:29.906Z,56.18
2023-02-23T08:16:34.080Z,56.07
2023-02-23T08:17:38.296Z,56.27
2023-02-23T08:18:41.157Z,55.99
2023-02-23T08:19:43.836Z,56.51
2023-02-23T08:20:46.474Z,56.27
2023-02-23T08:21:49.176Z,55.74
2023-02-23T08:22:55.929Z,55.72
2023-02-23T08:23:59.304Z,55.23
2023-02-23T08:25:03.018Z,55.54
2023-02-23T08:26:05.818Z,55.48
2023-02-23T08:27:08.639Z,55.62
2023-02-23T08:28:11.369Z,55.55
2023-02-23T08:29:14.255Z,55.85
2023-02-23T08:30:17.875Z,55.47
2023-02-23T08:31:23.575Z,55.87
2023-02-23T08:32:27.857Z,55.90
2023-02-23T08:33:32.725Z,56.18
2023-02-23T08:34:40.596Z,56.28
2023-02-23T08:35:43.243Z,55.99
2023-02-23T08:36:46.443Z,56.01
2023-02-23T08:37:49.279Z,55.84
2023-02-23T08:38:52.047Z,55.75
2023-02-23T08:39:54.709Z,55.70
2023-02-23T08:41:02.056Z,55.50
2023-02-23T08:42:05.858Z,55.50
2023-02-23T08:43:08.518Z,54.85
2023-02-23T08:44:11.305Z,54.91
2023-02-23T08:45:14.004Z,55.25
2023-02-23T08:46:19.861Z,55.47
2023-02-23T08:47:24.618Z,55.76
2023-02-23T08:48:27.330Z,55.49
2023-02-23T08:50:45.399Z,55.78
2023-02-23T08:51:48.124Z,55.61
2023-02-23T08:52:50.857Z,55.52
2023-02-23T08:53:53.631Z,55.31
2023-02-23T08:54:59.571Z,55.25
2023-02-23T08:56:05.676Z,55.42
2023-02-23T08:57:08.443Z,55.51
2023-02-23T08:58:14.331Z,55.38
2023-02-23T08:59:17.094Z,55.24
2023-02-23T09:00:20.387Z,55.37
2023-02-23T09:01:23.372Z,55.00
2023-02-23T09:02:26.113Z,55.02
2023-02-23T09:03:31.603Z,55.20
2023-02-23T09:04:36.263Z,54.90
2023-02-23T09:05:39.873Z,55.33
2023-02-23T09:06:42.663Z,54.87
2023-02-23T09:07:47.604Z,54.92
2023-02-23T09:08:50.917Z,54.88
2023-02-23T09:10:00.006Z,55.03
2023-02-23T09:11:02.719Z,55.20
2023-02-23T09:12:05.503Z,55.09
2023-02-23T09:13:08.306Z,55.22
2023-02-23T09:14:11.094Z,55.07
2023-02-23T09:15:13.752Z,54.74
2023-02-23T09:16:16.776Z,54.84
2023-02-23T09:17:19.721Z,55.03
2023-02-23T09:18:25.101Z,55.17
2023-02-23T09:19:28.668Z,54.67
2023-02-23T09:20:31.416Z,54.71
2023-02-23T09:21:35.523Z,54.78
2023-02-23T09:22:38.124Z,54.81
2023-02-23T09:23:40.997Z,54.37
2023-02-23T09:24:43.674Z,54.28
2023-02-23T09:25:47.102Z,54.44
2023-02-23T09:26:50.846Z,54.73
2023-02-23T09:27:58.046Z,54.98
2023-02-23T09:29:02.982Z,54.59
2023-02-23T09:30:06.609Z,54.39
2023-02-23T09:31:11.722Z,54.16
2023-02-23T09:32:14.639Z,54.26
2023-02-23T09:33:18.408Z,54.22
2023-02-23T09:34:21.293Z,54.35
2023-02-23T09:35:26.023Z,54.46
2023-02-23T09:36:32.214Z,54.53
2023-02-23T09:37:34.905Z,54.57
2023-02-23T09:38:37.522Z,54.50
2023-02-23T09:39:40.194Z,54.39
2023-02-23T09:40:50.784Z,54.30
2023-02-23T09:42:16.372Z,54.22
2023-02-23T09:43:27.458Z,54.50
2023-02-23T09:44:47.546Z,54.22
2023-02-23T09:46:00.840Z,54.49
2023-02-23T09:47:23.766Z,54.32
2023-02-23T09:48:28.779Z,54.44
2023-02-23T09:49:35.857Z,54.30
2023-02-23T09:50:40.480Z,54.40
2023-02-23T09:51:49.402Z,54.09
2023-02-23T09:53:02.705Z,53.76
2023-02-23T09:54:09.720Z,53.60
2023-02-23T09:55:15.141Z,53.64
2023-02-23T09:56:38.568Z,54.07
2023-02-23T09:57:45.745Z,54.06
2023-02-23T09:58:48.525Z,53.98
2023-02-23T09:59:51.242Z,54.16
2023-02-23T10:01:13.857Z,53.74
2023-02-23T10:02:27.668Z,54.07
2023-02-23T10:03:35.942Z,54.34
2023-02-23T10:04:51.962Z,54.33
2023-02-23T10:06:02.293Z,54.15
2023-02-23T10:07:10.858Z,53.93
2023-02-23T10:08:41.969Z,54.19
2023-02-23T10:10:08.724Z,54.27
2023-02-23T10:11:17.329Z,54.19
2023-02-23T10:12:50.928Z,54.48
2023-02-23T10:13:59.342Z,54.33
2023-02-23T10:15:11.488Z,54.08
2023-02-23T10:16:52.417Z,53.72
2023-02-23T10:18:06.939Z,53.87
2023-02-23T10:19:28.482Z,53.72
2023-02-23T10:20:46.363Z,53.40
2023-02-23T10:21:57.283Z,53.64
2023-02-23T10:23:09.129Z,53.99
2023-02-23T10:24:19.462Z,54.00
2023-02-23T10:25:26.567Z,53.94
2023-02-23T10:26:55.633Z,54.03
2023-02-23T10:27:59.890Z,53.78
2023-02-23T10:29:02.512Z,53.87
2023-02-23T10:30:18.629Z,53.69
2023-02-23T10:31:29.885Z,53.60
2023-02-23T10:32:47.051Z,53.95
2023-02-23T10:33:49.771Z,54.23
2023-02-23T10:34:57.621Z,54.31
2023-02-23T10:36:13.987Z,53.63
2023-02-23T10:37:18.690Z,53.64
2023-02-23T10:38:21.334Z,53.99
2023-02-23T10:39:24.384Z,53.59
2023-02-23T10:40:30.176Z,54.04
2023-02-23T10:41:32.834Z,54.34
2023-02-23T10:42:35.617Z,54.26
2023-02-23T10:43:38.496Z,54.04
2023-02-23T10:44:45.502Z,53.94
2023-02-23T10:45:50.691Z,54.08
2023-02-23T10:47:14.639Z,53.68
2023-02-23T10:48:25.629Z,54.88
2023-02-23T10:49:42.739Z,53.57
2023-02-23T10:50:46.857Z,53.75
2023-02-23T10:51:53.295Z,53.95
2023-02-23T10:53:04.581Z,53.90
2023-02-23T10:54:36.307Z,53.37
2023-02-23T10:55:39.079Z,53.21
2023-02-23T10:56:47.372Z,53.49
2023-02-23T10:57:52.628Z,53.65
2023-02-23T10:59:00.023Z,53.85
2023-02-23T11:00:18.205Z,53.61
2023-02-23T11:02:00.764Z,53.69
2023-02-23T11:03:19.904Z,53.59
2023-02-23T11:04:27.506Z,53.53
2023-02-23T11:05:33.058Z,53.22
2023-02-23T11:06:40.661Z,53.15
2023-02-23T11:07:44.378Z,53.25
2023-02-23T11:08:47.029Z,53.23
2023-02-23T11:09:49.724Z,53.47
2023-02-23T11:11:17.269Z,53.38
2023-02-23T11:12:40.674Z,53.78
2023-02-23T11:13:46.536Z,53.25
2023-02-23T11:14:50.822Z,53.14
2023-02-23T11:16:21.758Z,53.16
2023-02-23T11:17:29.480Z,52.71
2023-02-23T11:18:32.977Z,52.69
2023-02-23T11:19:40.887Z,52.84
2023-02-23T11:20:44.296Z,53.08
2023-02-23T11:21:53.246Z,53.26
2023-02-23T11:23:03.685Z,53.11
2023-02-23T11:24:29.104Z,52.92
2023-02-23T11:25:33.568Z,53.47
2023-02-23T11:26:43.021Z,52.97
2023-02-23T11:27:52.574Z,53.21
2023-02-23T11:28:59.194Z,53.13
2023-02-23T11:30:07.992Z,53.04
2023-02-23T11:31:18.689Z,53.21
2023-02-23T11:32:23.388Z,53.19
2023-02-23T11:33:36.931Z,53.04
2023-02-23T11:34:41.866Z,53.05
2023-02-23T11:35:44.886Z,53.55
2023-02-23T11:37:03.778Z,53.57
2023-02-23T11:38:24.607Z,53.05
2023-02-23T11:39:27.303Z,52.96
2023-02-23T11:40:32.979Z,53.19
2023-02-23T11:41:38.185Z,52.85
2023-02-23T11:42:56.163Z,53.21
2023-02-23T11:44:00.896Z,52.96
2023-02-23T11:45:18.702Z,52.85
2023-02-23T11:46:25.059Z,53.28
2023-02-23T11:47:27.838Z,53.46
2023-02-23T11:48:39.800Z,52.97
2023-02-23T11:49:46.883Z,53.55
2023-02-23T11:50:50.685Z,53.07
2023-02-23T11:51:55.471Z,52.69
2023-02-23T11:53:25.785Z,52.96
2023-02-23T11:54:34.869Z,52.79
2023-02-23T11:55:38.385Z,52.84
2023-02-23T11:56:41.041Z,52.49
2023-02-23T11:57:44.234Z,52.46
2023-02-23T11:58:48.627Z,52.50
2023-02-23T11:59:52.624Z,52.58
2023-02-23T12:00:57.932Z,52.39
2023-02-23T12:02:20.228Z,52.13
2023-02-23T12:03:24.716Z,52.36
2023-02-23T12:04:38.552Z,52.31
2023-02-23T12:05:41.327Z,52.33
2023-02-23T12:06:44.122Z,52.88
2023-02-23T12:08:00.933Z,52.83
2023-02-23T12:09:28.365Z,53.30
2023-02-23T12:10:40.060Z,52.94
2023-02-23T12:11:48.693Z,52.85
2023-02-23T12:13:03.556Z,52.88
2023-02-23T12:14:25.809Z,53.14
2023-02-23T12:15:52.999Z,52.90
2023-02-23T12:17:05.086Z,52.22
2023-02-23T12:18:18.090Z,52.13
2023-02-23T12:19:29.804Z,52.23
2023-02-23T12:20:40.334Z,52.30
2023-02-23T12:21:48.454Z,52.40
2023-02-23T12:23:00.541Z,52.21
2023-02-23T12:24:09.288Z,52.18
2023-02-23T12:25:15.232Z,52.36
2023-02-23T12:26:22.312Z,51.93
2023-02-23T12:27:34.964Z,51.99
2023-02-23T12:28:51.177Z,52.39
2023-02-23T12:30:08.748Z,52.27
2023-02-23T12:31:20.716Z,52.67
2023-02-23T12:32:29.486Z,52.17
2023-02-23T12:33:45.256Z,51.97
2023-02-23T12:35:02.309Z,52.14
2023-02-23T12:36:27.413Z,51.85
2023-02-23T12:37:42.254Z,51.90
2023-02-23T12:39:32.544Z,52.05
2023-02-23T12:40:39.243Z,52.31
2023-02-23T12:41:52.336Z,52.74
2023-02-23T12:43:00.868Z,52.52
2023-02-23T12:44:16.328Z,52.19
2023-02-23T12:45:26.891Z,52.31
2023-02-23T12:46:38.939Z,51.98
2023-02-23T12:47:48.510Z,52.20
2023-02-23T12:49:14.948Z,51.96
2023-02-23T12:50:30.027Z,51.97
2023-02-23T12:51:48.630Z,51.90
2023-02-23T12:52:58.673Z,51.51
2023-02-23T12:54:02.508Z,51.64
2023-02-23T12:55:10.667Z,51.72
2023-02-23T12:56:46.273Z,51.24
2023-02-23T12:57:51.927Z,51.52
2023-02-23T12:59:15.313Z,51.67
2023-02-23T13:00:51.562Z,51.81
2023-02-23T13:02:00.632Z,51.67
2023-02-23T13:03:24.384Z,51.84
2023-02-23T13:04:45.046Z,52.40
2023-02-23T13:06:06.116Z,52.17
2023-02-23T13:07:40.365Z,51.98
2023-02-23T13:09:08.203Z,52.46
2023-02-23T13:10:26.303Z,52.41
2023-02-23T13:11:48.696Z,52.38
2023-02-23T13:13:12.486Z,51.86
2023-02-23T13:14:31.167Z,52.02
2023-02-23T13:15:46.524Z,51.28
2023-02-23T13:16:52.690Z,51.50
2023-02-23T13:18:12.344Z,50.80
2023-02-23T13:19:24.121Z,50.82
2023-02-23T13:20:42.348Z,50.78
2023-02-23T13:21:59.086Z,50.84
2023-02-23T13:23:25.820Z,50.73
2023-02-23T13:24:38.469Z,50.97
2023-02-23T13:25:47.581Z,50.92
2023-02-23T13:27:01.500Z,50.81
2023-02-23T13:28:04.689Z,50.75
2023-02-23T13:29:23.687Z,51.08
2023-02-23T13:30:26.613Z,51.03
2023-02-23T13:31:41.843Z,51.24
2023-02-23T13:32:44.937Z,50.62
2023-02-23T13:33:47.848Z,50.76
2023-02-23T13:34:57.816Z,51.37
2023-02-23T13:36:04.928Z,51.39
2023-02-23T13:37:09.655Z,51.18
2023-02-23T13:38:24.848Z,50.90
2023-02-23T13:39:42.510Z,51.11
2023-02-23T13:40:56.353Z,51.30
2023-02-23T13:42:43.266Z,50.85
2023-02-23T13:43:54.689Z,50.71
2023-02-23T13:45:09.299Z,50.11
2023-02-23T13:46:26.796Z,50.21
2023-02-23T13:48:03.179Z,50.39
2023-02-23T13:49:33.416Z,50.52
2023-02-23T13:50:47.656Z,50.63
2023-02-23T13:51:55.228Z,51.07
2023-02-23T13:53:05.812Z,50.91
2023-02-23T13:54:24.059Z,50.59
2023-02-23T13:55:27.388Z,50.73
2023-02-23T13:56:35.662Z,50.77
2023-02-23T13:57:44.840Z,50.78
2023-02-23T13:59:03.216Z,50.79
2023-02-23T14:00:06.356Z,50.72
2023-02-23T14:01:44.925Z,50.78
2023-02-23T14:02:48.363Z,50.46
2023-02-23T14:04:00.928Z,50.10
2023-02-23T14:05:07.067Z,50.47
2023-02-23T14:06:15.647Z,50.56
2023-02-23T14:07:26.126Z,50.25
2023-02-23T14:08:37.529Z,50.51
2023-02-23T14:09:54.254Z,50.71
2023-02-23T14:10:58.422Z,50.96
2023-02-23T14:12:12.471Z,50.81
2023-02-23T14:13:15.089Z,50.81
2023-02-23T14:14:33.020Z,50.81
2023-02-23T14:15:35.677Z,50.65
2023-02-23T14:16:38.424Z,50.58
2023-02-23T14:17:41.750Z,50.76
2023-02-23T14:19:08.928Z,50.93
2023-02-23T14:20:17.768Z,50.46
2023-02-23T14:21:25.585Z,50.68
2023-02-23T14:22:29.356Z,50.72
2023-02-23T14:23:51.530Z,50.62
2023-02-23T14:25:31.793Z,50.71
2023-02-23T14:26:39.000Z,50.49
2023-02-23T14:27:46.179Z,50.52
2023-02-23T14:29:10.666Z,50.10
2023-02-23T14:30:15.600Z,50.08
2023-02-23T14:31:24.017Z,50.13
2023-02-23T14:32:29.786Z,50.83
2023-02-23T14:33:43.198Z,50.85
2023-02-23T14:34:50.263Z,50.84
2023-02-23T14:35:55.386Z,50.99
2023-02-23T14:36:58.234Z,50.45
2023-02-23T14:38:04.924Z,50.57
2023-02-23T14:39:19.003Z,50.83
2023-02-23T14:40:32.931Z,50.90
2023-02-23T14:41:54.085Z,50.48
2023-02-23T14:42:59.923Z,50.79
2023-02-23T14:44:29.995Z,50.63
2023-02-23T14:45:39.101Z,50.79
2023-02-23T14:46:51.736Z,50.72
2023-02-23T14:48:18.494Z,50.67
2023-02-23T14:49:23.801Z,51.00
2023-02-23T14:50:36.063Z,51.17
2023-02-23T14:51:43.184Z,51.19
2023-02-23T14:52:47.210Z,51.30
2023-02-23T14:53:56.166Z,51.33